createdAt,value
2023-04-18T00:01:09.922Z,43.97
2023-04-18T00:03:38.997Z,44.25
2023-04-18T00:06:06.899Z,44.29
2023-04-18T00:08:34.394Z,44.35
2023-04-18T00:11:01.629Z,44.42
2023-04-18T00:13:28.996Z,44.23
2023-04-18T00:15:56.786Z,44.29
2023-04-18T00:18:26.694Z,44.51
2023-04-18T00:20:54.300Z,44.59
2023-04-18T00:23:22.333Z,44.54
2023-04-18T00:25:49.550Z,44.88
2023-04-18T00:28:16.793Z,44.71
2023-04-18T00:30:44.044Z,44.69
2023-04-18T00:33:11.404Z,45.13
2023-04-18T00:35:38.628Z,44.95
2023-04-18T00:38:05.869Z,45.10
2023-04-18T00:40:33.480Z,44.85
2023-04-18T00:43:00.717Z,45.23
2023-04-18T00:45:28.026Z,45.77
2023-04-18T00:47:56.018Z,45.45
2023-04-18T00:50:23.984Z,45.26
2023-04-18T00:52:52.014Z,45.39
2023-04-18T00:55:19.406Z,45.20
2023-04-18T00:57:46.684Z,45.51
2023-04-18T01:00:15.136Z,45.68
2023-04-18T01:02:42.889Z,45.45
2023-04-18T01:05:10.302Z,45.15
2023-04-18T01:07:38.313Z,45.19
2023-04-18T01:10:06.037Z,45.16
2023-04-18T01:12:33.541Z,45.38
2023-04-18T01:15:00.869Z,45.48
2023-04-18T01:17:28.499Z,45.30
2023-04-18T01:19:56.983Z,45.68
2023-04-18T01:22:24.235Z,45.68
2023-04-18T01:24:51.475Z,45.54
2023-04-18T01:27:18.727Z,45.81
2023-04-18T01:29:46.023Z,45.81
2023-04-18T01:32:13.369Z,45.32
2023-04-18T01:34:41.517Z,45.70
2023-04-18T01:37:08.788Z,45.78
2023-04-18T01:39:36.073Z,45.60
2023-04-18T01:42:03.611Z,45.59
2023-04-18T01:44:31.271Z,45.77
2023-04-18T01:46:58.543Z,46.00
2023-04-18T01:49:25.770Z,45.85
2023-04-18T01:51:52.963Z,45.68
2023-04-18T01:54:20.269Z,46.01
2023-04-18T01:56:47.584Z,45.80
2023-04-18T01:59:14.775Z,45.80
2023-04-18T02:01:42.810Z,46.15
2023-04-18T02:04:10.361Z,46.21
2023-04-18T02:06:37.999Z,46.32
2023-04-18T02:09:05.293Z,46.43
2023-04-18T02:11:32.768Z,46.53
2023-04-18T02:14:00.084Z,46.52
2023-04-18T02:16:27.409Z,46.55
2023-04-18T02:18:54.621Z,47.00
2023-04-18T02:21:22.682Z,46.44
2023-04-18T02:23:50.000Z,46.62
2023-04-18T02:26:17.271Z,47.18
2023-04-18T02:28:44.474Z,46.72
2023-04-18T02:31:14.849Z,46.74
2023-04-18T02:33:43.196Z,46.69
2023-04-18T02:36:10.727Z,47.21
2023-04-18T02:38:38.051Z,46.81
2023-04-18T02:41:05.383Z,47.12
2023-04-18T02:43:33.061Z,47.33
2023-04-18T02:46:00.353Z,47.45
2023-04-18T02:48:27.801Z,47.77
2023-04-18T02:51:03.300Z,47.58
2023-04-18T02:53:30.727Z,48.04
2023-04-18T02:55:58.460Z,48.26
2023-04-18T02:58:25.822Z,47.76
2023-04-18T03:00:53.683Z,48.08
2023-04-18T03:03:21.121Z,48.34
2023-04-18T03:05:48.517Z,48.27
2023-04-18T03:08:16.305Z,48.82
2023-04-18T03:10:43.790Z,49.03
2023-04-18T03:13:10.999Z,48.65
2023-04-18T03:15:38.300Z,49.12
2023-04-18T03:18:05.732Z,48.63
2023-04-18T03:20:32.996Z,49.22
2023-04-18T03:23:00.319Z,49.34
2023-04-18T03:25:27.610Z,49.95
2023-04-18T03:27:54.824Z,49.76
2023-04-18T03:30:22.125Z,50.07
2023-04-18T03:32:49.428Z,50.35
2023-04-18T03:35:16.719Z,50.58
2023-04-18T03:37:44.091Z,50.30
2023-04-18T03:40:11.909Z,50.80
2023-04-18T03:42:39.175Z,50.74
2023-04-18T03:45:06.875Z,50.81
2023-04-18T03:47:34.147Z,50.81
2023-04-18T03:50:01.428Z,50.87
2023-04-18T03:52:29.812Z,50.95
2023-04-18T03:54:57.404Z,50.62
2023-04-18T03:57:24.698Z,51.07
2023-04-18T03:59:51.975Z,50.45
2023-04-18T04:02:19.464Z,51.28
2023-04-18T04:04:47.032Z,50.48
2023-04-18T04:07:14.473Z,51.17
2023-04-18T04:09:41.911Z,50.95
2023-04-18T04:12:09.255Z,50.03
2023-04-18T04:14:37.209Z,50.80
2023-04-18T04:17:04.533Z,50.79
2023-04-18T04:19:31.785Z,50.70
2023-04-18T04:21:59.015Z,50.93
2023-04-18T04:24:26.280Z,50.88
2023-04-18T04:26:53.503Z,51.08
2023-04-18T04:29:21.606Z,51.46
2023-04-18T04:31:48.915Z,51.17
2023-04-18T04:34:16.972Z,51.79
2023-04-18T04:36:44.327Z,51.57
2023-04-18T04:39:11.758Z,51.71
2023-04-18T04:41:39.479Z,51.00
2023-04-18T04:44:07.158Z,50.54
2023-04-18T04:46:34.483Z,50.28
2023-04-18T04:49:01.710Z,50.30
2023-04-18T04:51:29.270Z,50.21
2023-04-18T04:53:56.560Z,48.99
2023-04-18T04:56:23.965Z,49.35
2023-04-18T04:58:51.386Z,49.34
2023-04-18T05:01:18.722Z,49.16
2023-04-18T05:03:46.183Z,48.67
2023-04-18T05:06:14.168Z,48.21
2023-04-18T05:08:41.588Z,48.12
2023-04-18T05:11:08.878Z,48.21
2023-04-18T05:13:36.125Z,48.40
2023-04-18T05:16:04.181Z,48.11
2023-04-18T05:18:33.006Z,47.87
2023-04-18T05:21:01.817Z,47.29
2023-04-18T05:23:29.329Z,47.18
2023-04-18T05:25:56.583Z,47.11
2023-04-18T05:28:25.700Z,47.09
2023-04-18T05:30:52.966Z,47.40
2023-04-18T05:33:20.550Z,47.49
2023-04-18T05:35:47.778Z,47.93
2023-04-18T05:38:15.968Z,47.36
2023-04-18T05:40:43.747Z,47.73
2023-04-18T05:43:11.163Z,47.72
2023-04-18T05:45:38.372Z,47.22
2023-04-18T05:48:05.673Z,47.76
2023-04-18T05:50:33.392Z,47.17
2023-04-18T05:53:01.249Z,46.93
2023-04-18T05:55:28.475Z,46.49
2023-04-18T05:57:55.791Z,46.58
2023-04-18T06:00:23.270Z,47.21
2023-04-18T06:02:50.897Z,47.20
2023-04-18T06:05:18.583Z,47.20
2023-04-18T06:07:46.026Z,47.55
2023-04-18T06:10:13.609Z,48.06
2023-04-18T06:12:40.906Z,46.96
2023-04-18T06:15:08.800Z,47.30
2023-04-18T06:17:36.240Z,46.44
2023-04-18T06:20:06.226Z,46.19
2023-04-18T06:22:36.778Z,46.11
2023-04-18T06:25:04.951Z,45.74
2023-04-18T06:27:32.472Z,46.02
2023-04-18T06:29:59.688Z,46.27
2023-04-18T06:32:27.019Z,46.03
2023-04-18T06:34:54.293Z,46.34
2023-04-18T06:37:21.527Z,46.49
2023-04-18T06:39:48.861Z,46.60
2023-04-18T06:42:16.416Z,47.50
2023-04-18T06:44:43.924Z,47.06
2023-04-18T06:47:11.242Z,47.10
2023-04-18T06:49:38.502Z,46.91
2023-04-18T06:52:05.995Z,47.22
2023-04-18T06:54:33.929Z,47.04
2023-04-18T06:57:03.468Z,46.71
2023-04-18T06:59:30.798Z,45.13
2023-04-18T07:01:58.101Z,46.00
2023-04-18T07:04:25.491Z,45.97
2023-04-18T07:06:52.888Z,46.02
2023-04-18T07:09:20.554Z,45.89
2023-04-18T07:11:47.843Z,46.45
2023-04-18T07:14:15.255Z,46.02
2023-04-18T07:16:42.615Z,46.00
2023-04-18T07:19:09.951Z,45.59
2023-04-18T07:21:40.237Z,45.83
2023-04-18T07:24:07.559Z,45.87
2023-04-18T07:26:35.016Z,46.66
2023-04-18T07:29:02.240Z,45.89
2023-04-18T07:31:31.307Z,46.00
2023-04-18T07:33:58.643Z,46.06
2023-04-18T07:36:26.455Z,45.10
2023-04-18T07:38:53.765Z,46.92
2023-04-18T07:41:21.329Z,46.57
2023-04-18T07:43:48.536Z,47.13
2023-04-18T07:46:15.917Z,45.43
2023-04-18T07:48:43.321Z,45.88
2023-04-18T07:51:11.390Z,45.63
2023-04-18T07:53:39.633Z,45.55
2023-04-18T07:56:07.058Z,44.43
2023-04-18T07:58:34.750Z,45.09
2023-04-18T08:01:02.758Z,45.54
2023-04-18T08:03:30.575Z,44.18
2023-04-18T08:05:58.229Z,45.23
2023-04-18T08:08:25.520Z,44.55
2023-04-18T08:10:53.362Z,44.79
2023-04-18T08:13:20.627Z,44.89
2023-04-18T08:15:48.144Z,44.76
2023-04-18T08:18:15.413Z,44.52
2023-04-18T08:20:42.681Z,43.58
2023-04-18T08:23:12.794Z,43.66
2023-04-18T08:25:40.904Z,44.08
2023-04-18T08:28:09.259Z,44.07
2023-04-18T08:30:36.624Z,43.59
2023-04-18T08:33:03.893Z,43.99
2023-04-18T08:35:31.185Z,44.37
2023-04-18T08:37:58.459Z,43.71
2023-04-18T08:40:25.795Z,42.47
2023-04-18T08:42:53.037Z,42.85
2023-04-18T08:45:20.895Z,42.32
2023-04-18T08:47:48.400Z,42.31
2023-04-18T08:50:17.274Z,40.88
2023-04-18T08:52:45.681Z,38.77
2023-04-18T08:55:12.898Z,38.05
2023-04-18T08:57:40.155Z,37.26
2023-04-18T09:00:11.227Z,36.08
2023-04-18T09:02:43.182Z,35.60
2023-04-18T09:05:12.289Z,33.96
2023-04-18T09:07:39.547Z,32.80
2023-04-18T09:10:07.387Z,32.99
2023-04-18T09:12:35.999Z,32.71
2023-04-18T09:15:13.305Z,31.97
2023-04-18T09:17:52.539Z,32.82
2023-04-18T09:20:43.726Z,32.07
2023-04-18T09:23:14.648Z,32.31
2023-04-18T09:25:44.402Z,32.34
2023-04-18T09:28:29.007Z,32.53
2023-04-18T09:30:57.558Z,31.22
2023-04-18T09:33:28.262Z,31.60
2023-04-18T09:35:56.592Z,31.21
2023-04-18T09:38:39.153Z,31.50
2023-04-18T09:41:10.703Z,30.67
2023-04-18T09:43:38.129Z,30.76
2023-04-18T09:46:05.461Z,30.56
2023-04-18T09:48:32.877Z,30.13
2023-04-18T09:51:06.208Z,30.23
2023-04-18T09:53:41.505Z,29.34
2023-04-18T09:56:12.853Z,30.25
2023-04-18T09:58:41.258Z,29.94
2023-04-18T10:01:08.632Z,29.88
2023-04-18T10:03:42.096Z,29.53
2023-04-18T10:06:09.372Z,29.31
2023-04-18T10:08:36.642Z,29.71
2023-04-18T10:11:03.959Z,29.55
2023-04-18T10:13:32.084Z,29.76
2023-04-18T10:15:59.338Z,29.27
2023-04-18T10:18:26.698Z,28.97
2023-04-18T10:21:01.220Z,29.60
2023-04-18T10:23:37.771Z,28.26
2023-04-18T10:26:06.239Z,28.92
2023-04-18T10:28:58.779Z,29.97
2023-04-18T10:31:27.477Z,31.09
2023-04-18T10:34:04.711Z,33.16
2023-04-18T10:37:05.861Z,35.02
2023-04-18T10:39:54.199Z,35.62
2023-04-18T10:42:46.894Z,36.20
2023-04-18T10:45:24.450Z,33.91
2023-04-18T10:47:51.720Z,34.02
2023-04-18T10:50:18.984Z,34.34
2023-04-18T10:52:46.538Z,34.95
2023-04-18T10:55:16.792Z,35.98
2023-04-18T10:57:48.195Z,36.61
2023-04-18T11:00:16.647Z,38.19
2023-04-18T11:02:57.499Z,39.37
2023-04-18T11:05:28.578Z,39.94
2023-04-18T11:07:55.874Z,40.30
2023-04-18T11:10:25.452Z,40.29
2023-04-18T11:12:53.919Z,39.80
2023-04-18T11:15:22.664Z,39.02
2023-04-18T11:18:03.505Z,38.09
2023-04-18T11:20:38.374Z,38.75
2023-04-18T11:23:17.654Z,38.50
2023-04-18T11:25:45.020Z,36.58
2023-04-18T11:28:13.601Z,35.98
2023-04-18T11:30:41.590Z,35.43
2023-04-18T11:33:09.949Z,34.53
2023-04-18T11:35:46.703Z,33.98
2023-04-18T11:38:14.754Z,32.58
2023-04-18T11:40:48.673Z,33.22
2023-04-18T11:43:20.903Z,33.54
2023-04-18T11:45:54.852Z,31.76
2023-04-18T11:48:23.081Z,32.04
2023-04-18T11:50:50.649Z,31.92
2023-04-18T11:53:37.369Z,31.24
2023-04-18T11:56:05.549Z,30.78
2023-04-18T11:58:33.510Z,30.75
2023-04-18T12:01:18.095Z,32.72
2023-04-18T12:04:05.977Z,34.78
2023-04-18T12:06:53.681Z,33.77
2023-04-18T12:09:22.009Z,33.81
2023-04-18T12:12:02.860Z,32.27
2023-04-18T12:14:30.412Z,32.81
2023-04-18T12:16:57.644Z,32.72
2023-04-18T12:19:28.298Z,32.07
2023-04-18T12:22:06.579Z,31.65
2023-04-18T12:24:34.550Z,32.04
2023-04-18T12:27:01.961Z,32.68
2023-04-18T12:29:29.335Z,31.70
2023-04-18T12:31:56.672Z,32.34
2023-04-18T12:34:24.149Z,31.25
2023-04-18T12:36:52.365Z,30.04
2023-04-18T12:39:19.732Z,30.76
2023-04-18T12:41:49.065Z,30.80
2023-04-18T12:44:17.315Z,30.09
2023-04-18T12:46:44.609Z,29.86
2023-04-18T12:49:11.866Z,31.43
2023-04-18T12:51:39.801Z,31.60
2023-04-18T12:54:07.061Z,32.77
2023-04-18T12:56:34.293Z,32.02
2023-04-18T12:59:01.663Z,31.56
2023-04-18T13:01:29.534Z,32.51
2023-04-18T13:04:10.857Z,32.16
2023-04-18T13:06:39.539Z,31.50
2023-04-18T13:09:06.772Z,30.61
2023-04-18T13:11:34.117Z,32.18
2023-04-18T13:14:01.453Z,32.47
2023-04-18T13:16:28.866Z,32.31
2023-04-18T13:18:56.178Z,32.05
2023-04-18T13:21:25.198Z,31.54
2023-04-18T13:23:52.459Z,31.36
2023-04-18T13:26:20.662Z,31.46
2023-04-18T13:28:47.937Z,31.36
2023-04-18T13:31:16.954Z,30.61
2023-04-18T13:33:44.552Z,30.03
2023-04-18T13:36:11.818Z,30.80
2023-04-18T13:38:39.534Z,30.91
2023-04-18T13:41:12.671Z,31.01
2023-04-18T13:43:40.964Z,30.39
2023-04-18T13:46:08.261Z,30.68
2023-04-18T13:48:35.620Z,31.41
2023-04-18T13:51:03.097Z,32.48
2023-04-18T13:53:31.255Z,30.72
2023-04-18T13:55:59.162Z,31.10
2023-04-18T13:58:26.684Z,31.05
2023-04-18T14:00:54.023Z,31.22
2023-04-18T14:03:22.694Z,31.66
2023-04-18T14:05:50.163Z,32.47
2023-04-18T14:08:18.380Z,34.32
2023-04-18T14:10:45.587Z,34.44
2023-04-18T14:13:12.817Z,35.20
2023-04-18T14:15:40.163Z,34.89
2023-04-18T14:18:07.402Z,35.12
2023-04-18T14:20:34.805Z,34.80
2023-04-18T14:23:02.244Z,33.55
2023-04-18T14:25:29.723Z,33.41
2023-04-18T14:28:09.414Z,32.94
2023-04-18T14:30:40.114Z,33.30
2023-04-18T14:33:08.599Z,34.03
2023-04-18T14:35:37.219Z,34.22
2023-04-18T14:38:04.476Z,34.64
2023-04-18T14:40:33.052Z,34.51
2023-04-18T14:43:00.540Z,34.13
2023-04-18T14:45:27.990Z,33.54
2023-04-18T14:47:55.887Z,33.25
2023-04-18T14:50:23.263Z,34.30
2023-04-18T14:52:50.957Z,34.54
2023-04-18T14:55:20.076Z,35.68
2023-04-18T14:57:47.351Z,36.08
2023-04-18T15:00:15.563Z,36.36
2023-04-18T15:02:43.317Z,36.90
2023-04-18T15:05:12.416Z,38.05
2023-04-18T15:07:40.811Z,37.34
2023-04-18T15:10:08.586Z,37.58
2023-04-18T15:12:36.338Z,38.12
2023-04-18T15:15:03.921Z,38.60
2023-04-18T15:17:32.296Z,39.15
2023-04-18T15:19:59.751Z,39.93
2023-04-18T15:22:26.992Z,40.14
2023-04-18T15:24:54.278Z,41.38
2023-04-18T15:27:21.481Z,42.18
2023-04-18T15:29:48.774Z,41.66
2023-04-18T15:32:16.325Z,42.72
2023-04-18T15:34:43.632Z,42.87
2023-04-18T15:37:10.877Z,42.61
2023-04-18T15:39:38.800Z,42.89
2023-04-18T15:42:06.070Z,42.70
2023-04-18T15:44:33.387Z,43.85
2023-04-18T15:47:01.790Z,43.60
2023-04-18T15:49:29.424Z,43.33
2023-04-18T15:51:56.866Z,43.83
2023-04-18T15:54:24.147Z,43.82
2023-04-18T15:56:51.653Z,44.10
2023-04-18T15:59:18.891Z,44.69
2023-04-18T16:01:46.443Z,44.95
2023-04-18T16:04:14.501Z,45.29
2023-04-18T16:06:42.509Z,45.68
2023-04-18T16:09:10.208Z,46.26
2023-04-18T16:11:37.461Z,45.50
2023-04-18T16:14:04.662Z,45.91
2023-04-18T16:16:32.302Z,46.10
2023-04-18T16:18:59.735Z,46.36
2023-04-18T16:21:28.270Z,46.37
2023-04-18T16:23:55.474Z,46.24
2023-04-18T16:26:24.807Z,47.11
2023-04-18T16:28:52.104Z,47.75
2023-04-18T16:31:19.371Z,47.71
2023-04-18T16:33:46.730Z,49.56
2023-04-18T16:36:14.055Z,48.43
2023-04-18T16:38:41.420Z,49.46
2023-04-18T16:41:09.444Z,48.34
2023-04-18T16:43:37.897Z,49.43
2023-04-18T16:46:05.618Z,51.17
2023-04-18T16:48:33.232Z,51.36
2023-04-18T16:51:00.690Z,52.51
2023-04-18T16:53:28.157Z,52.69
2023-04-18T16:55:55.835Z,53.41
2023-04-18T16:58:23.661Z,53.54
2023-04-18T17:00:51.087Z,53.54
2023-04-18T17:03:18.556Z,54.64
2023-04-18T17:05:46.508Z,55.27
2023-04-18T17:08:13.735Z,54.97
2023-04-18T17:10:41.062Z,54.81
2023-04-18T17:13:08.276Z,56.46
2023-04-18T17:15:36.557Z,57.17
2023-04-18T17:18:03.956Z,57.66
2023-04-18T17:20:31.397Z,57.57
2023-04-18T17:22:58.702Z,58.00
2023-04-18T17:25:25.929Z,57.84
2023-04-18T17:27:53.226Z,58.80
2023-04-18T17:30:20.753Z,59.08
2023-04-18T17:32:49.226Z,59.66
2023-04-18T17:35:16.760Z,60.56
2023-04-18T17:37:44.038Z,61.62
2023-04-18T17:40:11.992Z,62.04
2023-04-18T17:42:39.429Z,62.22
2023-04-18T17:45:07.680Z,62.54
2023-04-18T17:47:36.462Z,61.97
2023-04-18T17:50:04.319Z,63.30
2023-04-18T17:52:31.933Z,63.79
2023-04-18T17:54:59.465Z,63.56
2023-04-18T17:57:26.804Z,64.12
2023-04-18T17:59:54.140Z,65.43
2023-04-18T18:02:23.283Z,65.43
2023-04-18T18:04:51.556Z,65.89
2023-04-18T18:07:18.895Z,66.80
2023-04-18T18:09:46.450Z,66.98
2023-04-18T18:12:13.776Z,67.23
2023-04-18T18:14:41.058Z,68.12
2023-04-18T18:17:08.305Z,67.73
2023-04-18T18:19:36.535Z,68.81
2023-04-18T18:22:03.896Z,69.39
2023-04-18T18:24:31.483Z,69.63
2023-04-18T18:26:59.015Z,69.81
2023-04-18T18:29:26.320Z,69.92
2023-04-18T18:31:53.730Z,69.98
2023-04-18T18:34:22.004Z,69.89
2023-04-18T18:36:50.175Z,69.63
2023-04-18T18:39:17.670Z,70.00
2023-04-18T18:41:45.019Z,69.96
2023-04-18T18:44:12.223Z,70.55
2023-04-18T18:46:40.029Z,70.70
2023-04-18T18:49:09.008Z,70.29
2023-04-18T18:51:37.107Z,69.87
2023-04-18T18:54:04.463Z,71.50
2023-04-18T18:56:31.720Z,71.27
2023-04-18T18:58:59.086Z,70.74
2023-04-18T19:01:26.386Z,70.51
2023-04-18T19:03:53.721Z,70.95
2023-04-18T19:06:21.064Z,72.50
2023-04-18T19:08:48.736Z,72.62
2023-04-18T19:11:16.259Z,72.15
2023-04-18T19:13:44.326Z,74.02
2023-04-18T19:16:11.925Z,72.99
2023-04-18T19:18:40.630Z,73.50
2023-04-18T19:21:07.847Z,74.43
2023-04-18T19:23:36.131Z,74.53
2023-04-18T19:26:03.558Z,73.75
2023-04-18T19:28:30.925Z,71.94
2023-04-18T19:30:58.393Z,72.57
2023-04-18T19:33:25.696Z,72.79
2023-04-18T19:35:53.145Z,74.72
2023-04-18T19:38:20.745Z,74.31
2023-04-18T19:40:48.004Z,74.74
2023-04-18T19:43:15.386Z,75.22
2023-04-18T19:45:42.710Z,75.65
2023-04-18T19:48:10.001Z,77.12
2023-04-18T19:50:39.532Z,77.69
2023-04-18T19:53:07.013Z,76.92
2023-04-18T19:55:34.321Z,75.89
2023-04-18T19:58:01.759Z,76.21
2023-04-18T20:00:29.468Z,78.28
2023-04-18T20:02:59.144Z,76.53
2023-04-18T20:05:26.542Z,77.63
2023-04-18T20:07:54.128Z,78.41
2023-04-18T20:10:22.292Z,77.97
2023-04-18T20:12:50.219Z,76.85
2023-04-18T20:15:17.513Z,77.65
2023-04-18T20:17:44.895Z,77.74
2023-04-18T20:20:13.086Z,78.39
2023-04-18T20:22:41.852Z,78.19
2023-04-18T20:25:09.304Z,79.54
2023-04-18T20:27:36.616Z,80.45
2023-04-18T20:30:04.682Z,80.80
2023-04-18T20:32:33.542Z,81.37
2023-04-18T20:35:03.029Z,80.13
2023-04-18T20:37:30.390Z,80.95
2023-04-18T20:39:58.735Z,80.38
2023-04-18T20:42:26.041Z,81.03
2023-04-18T20:44:54.733Z,82.18
2023-04-18T20:47:22.037Z,82.93
2023-04-18T20:49:49.398Z,83.41
2023-04-18T20:52:16.623Z,84.76
2023-04-18T20:54:43.968Z,85.60
2023-04-18T20:57:11.209Z,85.05
2023-04-18T20:59:38.495Z,85.42
2023-04-18T21:02:06.936Z,86.15
2023-04-18T21:04:34.406Z,85.99
2023-04-18T21:07:01.692Z,86.77
2023-04-18T21:09:36.316Z,87.17
2023-04-18T21:12:04.161Z,87.21
2023-04-18T21:14:31.818Z,87.43
2023-04-18T21:16:59.084Z,87.32
2023-04-18T21:19:26.415Z,87.70
2023-04-18T21:21:53.792Z,88.60
2023-04-18T21:24:21.116Z,89.23
2023-04-18T21:26:48.344Z,90.02
2023-04-18T21:29:15.839Z,89.60
2023-04-18T21:31:43.077Z,90.93
2023-04-18T21:34:11.254Z,90.81
2023-04-18T21:36:40.139Z,91.19
2023-04-18T21:39:08.423Z,92.25
2023-04-18T21:41:35.882Z,92.03
2023-04-18T21:44:03.413Z,92.62
2023-04-18T21:46:31.518Z,93.55
2023-04-18T21:48:58.832Z,92.92
2023-04-18T21:51:27.482Z,94.64
2023-04-18T21:53:55.090Z,94.35
2023-04-18T21:56:22.380Z,94.33
2023-04-18T21:58:49.709Z,93.92
2023-04-18T22:01:17.067Z,94.54
2023-04-18T22:03:44.652Z,94.32
2023-04-18T22:06:12.250Z,94.82
2023-04-18T22:08:39.463Z,95.46
2023-04-18T22:11:09.183Z,95.82
2023-04-18T22:13:36.535Z,97.56
2023-04-18T22:16:04.043Z,97.52
2023-04-18T22:18:33.679Z,97.80
2023-04-18T22:21:03.327Z,98.62
2023-04-18T22:23:30.812Z,98.04
2023-04-18T22:25:58.140Z,99.28
2023-04-18T22:28:27.885Z,98.60
2023-04-18T22:30:55.541Z,98.45
2023-04-18T22:33:22.848Z,97.82
2023-04-18T22:35:50.162Z,98.19
2023-04-18T22:38:17.582Z,98.14
2023-04-18T22:40:44.816Z,98.89
2023-04-18T22:43:12.060Z,98.81
2023-04-18T22:45:39.274Z,98.37
2023-04-18T22:48:11.305Z,97.73
2023-04-18T22:50:42.510Z,98.00
2023-04-18T22:53:10.787Z,98.27
2023-04-18T22:55:41.653Z,98.52
2023-04-18T22:58:09.535Z,98.27
2023-04-18T23:00:37.138Z,98.09
2023-04-18T23:03:04.766Z,97.48
2023-04-18T23:05:32.217Z,98.45
2023-04-18T23:08:00.516Z,97.71
2023-04-18T23:10:28.102Z,97.73
2023-04-18T23:12:55.589Z,98.31
2023-04-18T23:15:23.100Z,98.02
2023-04-18T23:17:53.728Z,97.78
2023-04-18T23:20:21.173Z,98.01
2023-04-18T23:22:51.458Z,98.28
2023-04-18T23:25:19.913Z,98.52
2023-04-18T23:27:47.383Z,99.28
2023-04-18T23:30:14.836Z,99.40
2023-04-18T23:32:42.381Z,99.64
2023-04-18T23:35:10.943Z,99.68
2023-04-18T23:37:38.262Z,99.72
2023-04-18T23:40:06.724Z,99.87
2023-04-18T23:42:37.408Z,100.00
2023-04-18T23:45:05.924Z,100.00
2023-04-18T23:47:35.320Z,100.00
2023-04-18T23:50:02.820Z,99.90
2023-04-18T23:52:30.331Z,99.86
2023-04-18T23:55:01.166Z,100.00
2023-04-18T23:57:28.494Z,100.00
2023-04-18T23:59:55.832Z,100.00
